Time;durP1;ratioP1;P1;durP2;ratioP2;P2;SDS_P1;SDS_P2;PMS_P1;PMS_P2;Temp;Humidity;BMP_temperature;BMP_pressure;BME280_temperature;BME280_humidity;BME280_pressure;Samples;Min_cycle;Max_cycle;Signal;HPM_P1;HPM_P2
2021/08/12 00:00:18;;;;;;;18.70;12.85;;;16.50;90.30;;;;;;5053034;28;1117070;-79
2021/08/12 00:02:43;;;;;;;15.27;12.52;;;16.50;90.60;;;;;;5092685;28;20040;-79
2021/08/12 00:05:09;;;;;;;19.48;13.60;;;16.40;90.40;;;;;;5075493;28;20396;-79
2021/08/12 00:07:35;;;;;;;15.60;12.70;;;16.40;90.50;;;;;;5110588;28;20035;-80
2021/08/12 00:10:01;;;;;;;16.00;12.52;;;16.40;90.60;;;;;;5092690;28;20036;-80
2021/08/12 00:12:27;;;;;;;14.70;12.60;;;16.40;90.60;;;;;;5075350;28;20036;-79
2021/08/12 00:14:53;;;;;;;16.27;11.98;;;16.40;90.70;;;;;;5074466;28;20513;-80
2021/08/12 00:17:19;;;;;;;16.13;12.95;;;16.40;90.70;;;;;;5074240;28;20468;-80
2021/08/12 00:19:45;;;;;;;15.13;12.10;;;16.40;90.70;;;;;;5111995;28;20060;-80
2021/08/12 00:22:10;;;;;;;13.20;11.25;;;16.30;90.80;;;;;;5112345;28;20030;-79
2021/08/12 00:24:36;;;;;;;18.35;12.60;;;16.30;90.80;;;;;;5113696;28;20477;-80
2021/08/12 00:27:02;;;;;;;16.23;12.85;;;16.30;90.90;;;;;;5113023;28;20027;-80
2021/08/12 00:29:29;;;;;;;15.02;12.73;;;16.30;90.90;;;;;;5091475;28;20464;-80
2021/08/12 00:31:55;;;;;;;14.93;11.95;;;16.30;91.00;;;;;;5092502;28;20138;-80
2021/08/12 00:34:20;;;;;;;15.73;11.90;;;16.30;91.00;;;;;;5091718;28;20040;-81
2021/08/12 00:36:46;;;;;;;14.88;12.20;;;16.20;91.00;;;;;;5058425;28;20028;-81
2021/08/12 00:39:12;;;;;;;16.52;12.60;;;16.20;91.10;;;;;;5108697;28;20082;-81
2021/08/12 00:41:41;;;;;;;12.77;11.40;;;16.20;91.10;;;;;;5097798;28;20043;-80
2021/08/12 00:44:07;;;;;;;16.70;12.48;;;16.10;91.20;;;;;;5112516;28;20394;-80
2021/08/12 00:46:33;;;;;;;16.10;12.80;;;16.10;91.20;;;;;;5105211;28;20103;-80
2021/08/12 00:48:58;;;;;;;13.30;11.45;;;16.10;91.30;;;;;;5068979;28;20160;-79
2021/08/12 00:51:24;;;;;;;16.13;11.60;;;16.10;91.30;;;;;;5106574;28;20111;-80
2021/08/12 00:53:50;;;;;;;13.38;11.98;;;16.00;91.30;;;;;;5090992;28;20028;-80
2021/08/12 00:56:17;;;;;;;14.68;11.00;;;16.00;91.40;;;;;;5091108;28;20032;-80
2021/08/12 00:58:43;;;;;;;11.65;10.55;;;16.00;91.60;;;;;;5104672;28;20093;-80
2021/08/12 01:01:09;;;;;;;12.38;11.02;;;15.90;91.40;;;;;;5112040;28;20047;-80
2021/08/12 01:03:34;;;;;;;14.32;12.02;;;15.90;91.40;;;;;;5077676;28;20077;-78
2021/08/12 01:06:00;;;;;;;14.73;11.82;;;15.90;91.50;;;;;;5111933;28;20043;-80
2021/08/12 01:08:53;;;;;;;15.98;10.60;;;15.90;91.50;;;;;;5105070;28;20420;-80
2021/08/12 01:11:40;;;;;;;12.63;10.85;;;15.90;91.50;;;;;;5094117;28;20032;-79
2021/08/12 01:14:15;;;;;;;13.82;11.23;;;15.80;91.60;;;;;;5110180;28;20114;-79
2021/08/12 01:16:54;;;;;;;15.80;11.85;;;15.80;91.70;;;;;;5110801;28;20049;-79
2021/08/12 01:19:41;;;;;;;12.45;11.20;;;15.80;91.80;;;;;;5110306;28;20035;-79
2021/08/12 01:22:09;;;;;;;15.70;11.57;;;15.80;91.90;;;;;;5110548;28;20105;-80
2021/08/12 01:24:42;;;;;;;14.85;11.00;;;15.80;91.90;;;;;;5110632;28;20023;-79
2021/08/12 01:27:10;;;;;;;13.02;11.25;;;15.80;92.00;;;;;;5111221;28;20084;-80
2021/08/12 01:29:58;;;;;;;17.17;11.50;;;15.80;92.00;;;;;;5107764;28;20024;-79
2021/08/12 01:32:32;;;;;;;15.82;11.60;;;15.90;92.10;;;;;;5111434;28;20028;-80
2021/08/12 01:35:13;;;;;;;14.35;10.60;;;15.90;92.20;;;;;;5116705;28;20028;-81
2021/08/12 01:37:44;;;;;;;12.70;9.90;;;16.00;92.10;;;;;;5115014;28;20056;-80
2021/08/12 01:40:12;;;;;;;13.43;10.40;;;15.90;92.00;;;;;;5106762;28;20035;-81
2021/08/12 01:42:39;;;;;;;13.23;10.13;;;15.90;92.10;;;;;;5111271;28;20852;-81
2021/08/12 01:45:05;;;;;;;11.65;10.43;;;15.90;92.00;;;;;;5092895;28;20031;-81
2021/08/12 01:47:32;;;;;;;15.98;10.48;;;16.00;92.00;;;;;;5093917;28;20035;-80
2021/08/12 01:50:01;;;;;;;11.88;10.40;;;16.00;92.00;;;;;;5110642;28;20405;-80
2021/08/12 01:52:28;;;;;;;12.68;10.05;;;16.00;92.00;;;;;;5111089;28;20077;-80
2021/08/12 01:54:55;;;;;;;14.40;10.68;;;16.00;92.00;;;;;;5087094;28;20030;-80
2021/08/12 01:57:21;;;;;;;14.20;10.43;;;16.00;92.00;;;;;;5103752;28;20933;-80
2021/08/12 01:59:48;;;;;;;12.57;10.60;;;16.00;92.00;;;;;;5092605;28;20044;-78
2021/08/12 02:02:15;;;;;;;12.82;10.60;;;16.00;92.00;;;;;;5092073;28;20055;-80
2021/08/12 02:04:42;;;;;;;14.68;11.07;;;16.00;92.00;;;;;;5110129;28;20650;-80
2021/08/12 02:07:11;;;;;;;14.98;11.93;;;16.00;92.10;;;;;;5091187;28;20391;-80
2021/08/12 02:09:37;;;;;;;15.68;11.90;;;16.00;92.20;;;;;;5091102;28;20028;-80
2021/08/12 02:12:04;;;;;;;15.68;12.15;;;15.90;92.30;;;;;;5086300;28;20044;-79
2021/08/12 02:14:34;;;;;;;15.77;12.50;;;15.90;92.40;;;;;;5110493;28;20032;-79
2021/08/12 02:16:59;;;;;;;14.75;12.65;;;15.90;92.50;;;;;;5109928;28;20057;-80
2021/08/12 02:19:25;;;;;;;18.08;14.18;;;15.80;92.60;;;;;;5109023;28;20495;-80
2021/08/12 02:22:00;;;;;;;15.07;13.13;;;15.80;92.60;;;;;;5065856;28;20043;-80
2021/08/12 02:24:36;;;;;;;20.00;15.85;;;15.80;92.70;;;;;;5093863;28;20024;-80
2021/08/12 02:27:07;;;;;;;19.15;14.77;;;15.80;92.70;;;;;;5104638;28;20558;-81
2021/08/12 02:29:34;;;;;;;20.75;16.60;;;15.80;92.70;;;;;;5109044;28;20031;-81
2021/08/12 02:32:03;;;;;;;18.63;16.17;;;15.80;92.70;;;;;;5104516;28;20080;-81
2021/08/12 02:34:30;;;;;;;19.05;15.90;;;15.80;92.70;;;;;;5096477;28;20499;-80
2021/08/12 02:36:57;;;;;;;19.10;16.58;;;15.90;92.70;;;;;;5097854;28;20500;-80
2021/08/12 02:39:28;;;;;;;17.90;15.48;;;15.80;92.70;;;;;;5079553;28;20077;-79
2021/08/12 02:41:55;;;;;;;19.70;16.88;;;15.80;92.70;;;;;;5110322;28;20051;-81
2021/08/12 02:44:21;;;;;;;19.90;17.55;;;15.80;92.70;;;;;;5093099;28;20039;-81
2021/08/12 02:46:49;;;;;;;24.70;19.40;;;15.70;92.80;;;;;;5102119;28;20020;-80
2021/08/12 02:49:15;;;;;;;22.58;18.42;;;15.70;92.80;;;;;;5093663;28;20055;-80
2021/08/12 02:51:41;;;;;;;21.67;17.83;;;15.70;92.80;;;;;;5097402;28;20024;-80
2021/08/12 02:54:08;;;;;;;19.38;16.85;;;15.60;92.80;;;;;;5091948;28;20036;-79
2021/08/12 02:56:35;;;;;;;21.05;18.70;;;15.60;93.00;;;;;;5084743;28;20740;-80
2021/08/12 02:59:03;;;;;;;23.20;18.55;;;15.60;92.80;;;;;;5065761;28;20085;-81
2021/08/12 03:01:30;;;;;;;25.85;20.02;;;15.60;92.90;;;;;;5111698;28;20027;-80
2021/08/12 03:03:57;;;;;;;24.60;20.42;;;15.60;92.90;;;;;;5084256;28;20040;-79
2021/08/12 03:06:24;;;;;;;21.63;19.05;;;15.60;92.90;;;;;;5101949;28;20028;-80
2021/08/12 03:08:52;;;;;;;25.42;19.92;;;15.60;93.00;;;;;;5097301;28;20032;-79
2021/08/12 03:11:19;;;;;;;24.05;19.60;;;15.60;93.00;;;;;;5100909;28;20028;-78
2021/08/12 03:13:46;;;;;;;26.08;19.35;;;15.60;93.00;;;;;;5109686;28;20047;-79
2021/08/12 03:16:12;;;;;;;19.25;15.85;;;15.60;93.00;;;;;;5102627;28;20042;-78
2021/08/12 03:18:38;;;;;;;18.42;16.52;;;15.60;93.00;;;;;;5090153;28;20031;-79
2021/08/12 03:21:11;;;;;;;19.33;16.63;;;15.50;93.00;;;;;;5096803;28;20039;-79
2021/08/12 03:23:38;;;;;;;19.48;16.52;;;15.50;93.00;;;;;;5101915;28;20085;-80
2021/08/12 03:26:04;;;;;;;19.77;16.27;;;15.50;93.00;;;;;;5105415;28;20016;-79
2021/08/12 03:28:31;;;;;;;19.13;16.55;;;15.40;93.00;;;;;;5099118;28;20114;-79
2021/08/12 03:30:58;;;;;;;19.42;15.60;;;15.40;93.00;;;;;;5112087;28;20114;-80
2021/08/12 03:33:24;;;;;;;20.77;16.10;;;15.40;93.00;;;;;;5082004;28;20057;-78
2021/08/12 03:35:50;;;;;;;18.35;15.82;;;15.40;93.00;;;;;;5090864;28;20024;-79
2021/08/12 03:38:15;;;;;;;18.85;15.68;;;15.40;93.10;;;;;;5101986;28;20032;-82
2021/08/12 03:40:41;;;;;;;21.23;15.68;;;15.40;93.10;;;;;;5087108;28;20024;-79
2021/08/12 03:43:07;;;;;;;21.45;15.50;;;15.40;93.10;;;;;;5092238;28;20035;-79
2021/08/12 03:45:32;;;;;;;18.98;15.68;;;15.40;93.10;;;;;;5076764;28;20031;-80
2021/08/12 03:47:58;;;;;;;21.60;15.63;;;15.40;93.10;;;;;;5097112;28;20032;-80
2021/08/12 03:50:23;;;;;;;20.13;14.27;;;15.40;93.10;;;;;;5100860;28;20063;-80
2021/08/12 03:52:49;;;;;;;19.73;15.57;;;15.40;93.30;;;;;;5080945;28;20055;-80
2021/08/12 03:55:15;;;;;;;16.90;14.60;;;15.30;93.10;;;;;;5061712;28;20434;-80
2021/08/12 03:57:44;;;;;;;17.58;13.70;;;15.30;93.10;;;;;;5100177;28;20441;-80
2021/08/12 04:00:15;;;;;;;18.33;14.05;;;15.30;93.10;;;;;;5103527;28;20052;-80
2021/08/12 04:02:40;;;;;;;16.10;14.27;;;15.30;93.20;;;;;;5097030;28;20252;-80
2021/08/12 04:05:07;;;;;;;19.23;12.75;;;15.20;93.20;;;;;;5084442;28;20462;-80
2021/08/12 04:07:32;;;;;;;20.02;14.32;;;15.20;93.20;;;;;;5110541;27;20099;-80
2021/08/12 04:09:58;;;;;;;16.77;13.45;;;15.20;93.30;;;;;;5109561;28;20055;-79
2021/08/12 04:12:24;;;;;;;15.30;13.40;;;15.20;93.20;;;;;;5065393;28;20055;-80
2021/08/12 04:14:49;;;;;;;18.10;13.60;;;15.20;93.20;;;;;;5068494;28;20036;-79
2021/08/12 04:17:15;;;;;;;17.52;13.45;;;15.20;93.20;;;;;;5109189;28;20387;-80
2021/08/12 04:19:41;;;;;;;19.00;13.35;;;15.20;93.50;;;;;;5097951;28;20023;-80
2021/08/12 04:22:07;;;;;;;17.40;12.95;;;15.20;93.30;;;;;;5105007;28;20455;-79
2021/08/12 04:24:33;;;;;;;18.30;13.35;;;15.10;93.30;;;;;;5105792;28;20115;-80
2021/08/12 04:26:59;;;;;;;19.45;13.60;;;15.20;93.40;;;;;;5098525;28;20109;-80
2021/08/12 04:29:25;;;;;;;18.27;13.30;;;15.20;93.40;;;;;;5098647;28;20360;-80
2021/08/12 04:31:50;;;;;;;16.58;13.98;;;15.20;93.40;;;;;;5079042;28;20050;-79
2021/08/12 04:34:16;;;;;;;19.23;14.40;;;15.20;93.40;;;;;;5075038;28;20036;-79
2021/08/12 04:36:42;;;;;;;20.02;16.25;;;15.30;93.40;;;;;;5109473;28;20059;-79
2021/08/12 04:39:08;;;;;;;23.60;18.42;;;15.30;93.50;;;;;;5104402;28;20030;-79
2021/08/12 04:41:34;;;;;;;22.08;17.55;;;15.60;93.40;;;;;;5088418;28;20454;-79
2021/08/12 04:43:59;;;;;;;19.88;17.35;;;15.70;93.30;;;;;;5101860;28;20327;-79
2021/08/12 04:46:25;;;;;;;21.27;15.73;;;15.70;93.10;;;;;;5097576;28;20020;-81
2021/08/12 04:48:51;;;;;;;19.58;15.30;;;15.80;93.00;;;;;;5072516;28;20896;-79
2021/08/12 04:51:16;;;;;;;20.38;14.63;;;15.90;92.90;;;;;;5080777;28;20039;-79
2021/08/12 04:53:42;;;;;;;18.42;15.32;;;16.00;93.00;;;;;;5084382;28;20039;-80
2021/08/12 04:56:07;;;;;;;19.08;14.65;;;16.20;92.70;;;;;;5098301;28;20039;-80
2021/08/12 04:58:33;;;;;;;20.35;15.38;;;16.60;92.40;;;;;;5088726;28;20111;-79
2021/08/12 05:00:59;;;;;;;16.42;13.68;;;17.30;91.60;;;;;;5081730;28;20104;-79
2021/08/12 05:03:25;;;;;;;15.43;13.05;;;17.60;90.70;;;;;;5097280;28;20379;-79
2021/08/12 05:06:03;;;;;;;14.88;12.52;;;17.40;90.40;;;;;;5101243;28;20400;-79
2021/08/12 05:08:30;;;;;;;16.95;13.48;;;17.30;90.50;;;;;;5090736;28;20088;-80
2021/08/12 05:10:56;;;;;;;15.00;12.10;;;17.30;90.70;;;;;;5082727;28;20038;-79
2021/08/12 05:13:22;;;;;;;17.90;12.13;;;17.30;90.40;;;;;;5101329;28;20028;-80
2021/08/12 05:15:47;;;;;;;17.88;12.30;;;17.30;90.30;;;;;;5102506;28;20220;-79
2021/08/12 05:18:13;;;;;;;14.65;12.35;;;17.30;90.40;;;;;;5101152;28;20024;-79
2021/08/12 05:20:39;;;;;;;13.48;11.60;;;17.70;90.30;;;;;;5104553;28;20024;-79
2021/08/12 05:23:05;;;;;;;14.57;11.75;;;17.70;89.60;;;;;;5087689;28;20842;-79
2021/08/12 05:25:31;;;;;;;14.82;11.70;;;17.70;89.10;;;;;;5108578;28;20024;-81
2021/08/12 05:27:57;;;;;;;15.77;11.32;;;17.60;89.20;;;;;;5101776;28;20065;-80
2021/08/12 05:30:23;;;;;;;14.18;11.52;;;17.60;89.40;;;;;;5099029;28;20372;-79
2021/08/12 05:32:49;;;;;;;13.60;11.05;;;18.40;88.80;;;;;;5082911;28;20107;-79
2021/08/12 05:35:15;;;;;;;12.63;10.85;;;19.60;85.10;;;;;;5107358;28;20042;-78
2021/08/12 05:37:40;;;;;;;15.85;11.18;;;20.20;82.10;;;;;;5103656;28;20098;-79
2021/08/12 05:40:06;;;;;;;14.60;11.13;;;20.80;80.70;;;;;;5095121;28;20039;-79
2021/08/12 05:42:32;;;;;;;11.68;9.88;;;21.70;77.70;;;;;;5098379;28;20032;-80
2021/08/12 05:44:58;;;;;;;11.77;9.45;;;22.60;74.80;;;;;;5098240;28;20388;-80
2021/08/12 05:47:23;;;;;;;11.35;9.07;;;23.50;72.20;;;;;;5090577;28;20157;-80
2021/08/12 05:49:49;;;;;;;11.35;9.27;;;23.80;70.40;;;;;;5097365;28;20039;-80
2021/08/12 05:52:15;;;;;;;11.00;9.10;;;23.20;70.80;;;;;;5097525;28;20043;-80
2021/08/12 05:54:41;;;;;;;11.30;8.90;;;22.50;72.60;;;;;;5096529;28;20035;-80
2021/08/12 05:57:06;;;;;;;15.93;9.50;;;22.00;73.50;;;;;;5063978;28;20050;-80
2021/08/12 05:59:32;;;;;;;11.15;9.90;;;21.40;74.60;;;;;;5075552;28;20395;-80
2021/08/12 06:01:58;;;;;;;10.38;9.25;;;21.00;76.10;;;;;;5102270;28;20021;-79
2021/08/12 06:04:23;;;;;;;13.55;10.63;;;20.70;77.10;;;;;;5078995;28;20029;-79
2021/08/12 06:06:49;;;;;;;16.48;11.38;;;20.60;78.00;;;;;;5088946;28;20020;-80
2021/08/12 06:09:15;;;;;;;12.07;9.68;;;21.10;77.20;;;;;;5108748;28;20055;-80
2021/08/12 06:11:40;;;;;;;15.02;10.45;;;21.60;75.40;;;;;;5092235;28;20051;-80
2021/08/12 06:14:06;;;;;;;14.48;9.85;;;22.00;74.80;;;;;;5110128;28;20067;-79
2021/08/12 06:16:32;;;;;;;12.80;9.60;;;22.90;73.50;;;;;;5108091;28;20032;-79
2021/08/12 06:18:57;;;;;;;14.25;9.52;;;23.90;70.10;;;;;;5088228;28;20484;-79
2021/08/12 06:21:24;;;;;;;11.85;8.93;;;24.80;67.80;;;;;;5107746;28;20054;-79
2021/08/12 06:23:50;;;;;;;11.23;8.90;;;25.50;66.60;;;;;;5114496;28;20055;-77
2021/08/12 06:26:16;;;;;;;12.38;8.45;;;26.20;65.00;;;;;;5092582;28;20039;-80
2021/08/12 06:28:43;;;;;;;12.75;9.07;;;26.50;63.50;;;;;;5095890;28;20036;-81
2021/08/12 06:31:09;;;;;;;13.18;9.35;;;26.20;63.00;;;;;;5107275;28;20026;-80
2021/08/12 06:33:34;;;;;;;13.80;10.10;;;26.10;63.50;;;;;;5115800;28;20446;-79
2021/08/12 06:36:00;;;;;;;14.32;10.48;;;26.00;63.80;;;;;;5106471;28;20180;-79
2021/08/12 06:38:26;;;;;;;14.90;10.82;;;26.20;64.00;;;;;;5110702;28;20114;-78
2021/08/12 06:40:52;;;;;;;13.90;11.48;;;26.20;63.40;;;;;;5111514;28;20146;-79
2021/08/12 06:43:17;;;;;;;15.88;11.00;;;25.90;64.20;;;;;;5105365;28;20043;-79
2021/08/12 06:45:44;;;;;;;11.80;10.10;;;25.50;64.70;;;;;;5093484;28;20040;-82
2021/08/12 06:48:11;;;;;;;12.20;9.65;;;25.30;65.30;;;;;;5070680;28;20035;-81
2021/08/12 06:50:36;;;;;;;11.35;9.43;;;25.00;65.40;;;;;;5116844;27;20030;-80
2021/08/12 06:53:03;;;;;;;12.95;10.35;;;25.00;66.20;;;;;;5104547;28;20666;-80
2021/08/12 06:55:30;;;;;;;13.95;10.77;;;25.10;66.00;;;;;;5113306;28;20081;-80
2021/08/12 06:57:56;;;;;;;13.55;11.63;;;25.30;66.20;;;;;;5122374;27;20428;-79
2021/08/12 07:00:22;;;;;;;14.23;11.50;;;25.50;65.50;;;;;;5092813;28;20048;-81
2021/08/12 07:02:48;;;;;;;14.27;10.85;;;25.40;65.30;;;;;;5089761;28;20031;-82
2021/08/12 07:05:14;;;;;;;15.48;10.20;;;25.30;65.40;;;;;;5103512;28;20509;-79
2021/08/12 07:07:40;;;;;;;12.07;9.82;;;25.40;65.60;;;;;;5109000;28;20035;-80
2021/08/12 07:10:06;;;;;;;14.38;10.02;;;26.00;64.60;;;;;;5101348;28;20307;-80
2021/08/12 07:12:32;;;;;;;15.57;10.40;;;27.10;63.50;;;;;;5087860;28;20047;-79
2021/08/12 07:14:57;;;;;;;14.07;10.80;;;28.20;61.00;;;;;;5100503;28;20473;-80
2021/08/12 07:17:25;;;;;;;13.18;9.68;;;28.90;59.00;;;;;;5086389;28;20038;-81
2021/08/12 07:19:50;;;;;;;13.10;9.88;;;29.20;57.60;;;;;;5072861;28;20028;-81
2021/08/12 07:22:18;;;;;;;11.90;9.57;;;29.50;56.30;;;;;;5109383;27;20028;-81
2021/08/12 07:24:44;;;;;;;10.63;9.48;;;29.40;55.80;;;;;;5103619;28;20424;-80
2021/08/12 07:27:10;;;;;;;10.02;8.65;;;29.20;56.00;;;;;;5103182;28;20099;-78
2021/08/12 07:29:35;;;;;;;10.38;8.45;;;29.20;55.50;;;;;;5100691;28;20027;-81
2021/08/12 07:32:03;;;;;;;11.13;8.90;;;29.20;55.80;;;;;;5086426;28;20081;-81
2021/08/12 07:34:28;;;;;;;9.90;8.07;;;29.40;54.80;;;;;;5095034;28;20544;-81
2021/08/12 07:36:55;;;;;;;9.30;7.43;;;29.70;54.40;;;;;;5094085;28;20130;-80
2021/08/12 07:39:21;;;;;;;10.50;7.93;;;30.20;53.80;;;;;;5092615;28;20067;-80
2021/08/12 07:41:47;;;;;;;8.35;7.53;;;30.60;52.90;;;;;;5113547;28;20059;-80
2021/08/12 07:44:14;;;;;;;7.97;7.10;;;30.70;52.60;;;;;;5107712;28;20031;-80
2021/08/12 07:46:40;;;;;;;8.27;7.38;;;31.00;51.80;;;;;;5105735;28;20027;-82
2021/08/12 07:49:05;;;;;;;8.18;7.13;;;31.30;50.40;;;;;;5105182;28;20077;-80
2021/08/12 07:51:31;;;;;;;7.80;6.93;;;31.60;50.00;;;;;;5103955;28;20474;-81
2021/08/12 07:53:57;;;;;;;7.65;6.85;;;31.80;49.20;;;;;;5084852;28;20043;-81
2021/08/12 07:56:23;;;;;;;7.82;6.82;;;31.80;49.30;;;;;;5105126;28;20031;-80
2021/08/12 07:58:49;;;;;;;7.63;6.70;;;32.10;49.00;;;;;;5090749;28;20028;-79
2021/08/12 08:01:16;;;;;;;7.93;6.10;;;32.60;48.30;;;;;;5105549;28;20409;-78
2021/08/12 08:03:42;;;;;;;7.55;6.78;;;32.60;46.90;;;;;;5085514;28;20022;-80
2021/08/12 08:06:08;;;;;;;9.13;6.25;;;32.80;47.20;;;;;;5105134;28;20093;-81
2021/08/12 08:08:34;;;;;;;6.72;5.90;;;32.70;46.90;;;;;;5110409;28;20056;-81
2021/08/12 08:10:59;;;;;;;7.38;6.43;;;32.70;47.10;;;;;;5108468;28;20089;-81
2021/08/12 08:13:25;;;;;;;8.77;5.85;;;32.80;47.00;;;;;;5085131;28;20843;-82
2021/08/12 08:15:51;;;;;;;7.47;6.15;;;33.00;46.70;;;;;;5104831;28;20027;-81
2021/08/12 08:18:16;;;;;;;8.38;6.05;;;33.00;46.60;;;;;;5109807;28;20585;-82
2021/08/12 08:20:42;;;;;;;8.07;6.00;;;33.40;45.90;;;;;;5108522;28;20035;-80
2021/08/12 08:23:10;;;;;;;7.25;5.93;;;33.60;45.60;;;;;;5113611;28;20035;-79
2021/08/12 08:25:36;;;;;;;8.75;6.30;;;33.70;45.30;;;;;;5112313;28;20016;-78
2021/08/12 08:28:03;;;;;;;5.90;5.30;;;33.90;45.60;;;;;;5114868;28;20038;-79
2021/08/12 08:30:30;;;;;;;6.90;5.40;;;33.90;45.10;;;;;;5113053;28;20031;-80
2021/08/12 08:32:56;;;;;;;6.30;5.50;;;33.90;45.00;;;;;;5111781;28;20120;-81
2021/08/12 08:35:25;;;;;;;7.30;4.93;;;33.70;44.50;;;;;;5092385;28;20114;-81
2021/08/12 08:37:51;;;;;;;6.13;5.13;;;33.70;44.40;;;;;;5089688;28;20024;-79
2021/08/12 08:40:17;;;;;;;5.50;4.97;;;33.60;44.50;;;;;;5106326;28;20463;-80
2021/08/12 08:42:45;;;;;;;6.15;5.05;;;33.70;44.40;;;;;;5091502;28;20032;-80
2021/08/12 08:45:12;;;;;;;6.85;5.88;;;33.90;43.30;;;;;;5096882;28;20039;-81
2021/08/12 08:47:40;;;;;;;6.85;5.00;;;34.00;42.80;;;;;;5110949;28;20032;-79
2021/08/12 08:50:07;;;;;;;5.68;5.18;;;33.80;43.30;;;;;;5110920;28;20024;-79
2021/08/12 08:52:35;;;;;;;5.05;4.40;;;33.90;43.10;;;;;;5089695;28;20093;-79
2021/08/12 08:55:01;;;;;;;4.55;4.10;;;34.00;43.80;;;;;;5092408;28;20506;-80
2021/08/12 08:57:27;;;;;;;7.28;4.03;;;34.20;42.90;;;;;;5110095;28;20516;-79
2021/08/12 08:59:53;;;;;;;5.00;4.50;;;34.50;42.60;;;;;;5109313;28;20056;-80
2021/08/12 09:02:18;;;;;;;5.47;4.55;;;34.90;41.50;;;;;;5109393;28;20043;-80
2021/08/12 09:04:44;;;;;;;5.15;4.30;;;34.90;42.00;;;;;;5109258;28;20031;-78
2021/08/12 09:07:10;;;;;;;4.05;3.75;;;35.00;41.00;;;;;;5073185;28;20031;-79
2021/08/12 09:09:37;;;;;;;4.57;4.07;;;34.70;40.40;;;;;;5106456;28;20073;-79
2021/08/12 09:12:05;;;;;;;5.97;4.60;;;34.90;41.60;;;;;;5106439;28;20073;-79
2021/08/12 09:14:39;;;;;;;7.60;4.30;;;35.20;39.30;;;;;;5093129;28;20019;-79
2021/08/12 09:17:25;;;;;;;5.28;4.40;;;35.10;41.00;;;;;;5090883;28;20023;-82
2021/08/12 09:19:59;;;;;;;4.68;3.00;;;35.30;40.30;;;;;;5109574;28;20032;-80
2021/08/12 09:22:28;;;;;;;3.38;2.55;;;34.90;39.50;;;;;;5109216;28;20031;-79
2021/08/12 09:24:54;;;;;;;5.50;3.63;;;34.60;37.50;;;;;;5111168;28;20084;-79
2021/08/12 09:27:21;;;;;;;2.67;2.30;;;34.40;40.30;;;;;;5106409;28;20550;-79
2021/08/12 09:29:47;;;;;;;4.40;3.35;;;34.50;39.20;;;;;;5074478;28;20035;-79
2021/08/12 09:32:12;;;;;;;7.10;3.80;;;34.70;40.30;;;;;;5108828;28;20406;-80
2021/08/12 09:34:45;;;;;;;7.45;3.58;;;34.90;40.30;;;;;;5109042;28;20031;-79
2021/08/12 09:37:11;;;;;;;4.15;2.78;;;35.10;39.50;;;;;;5110987;28;20019;-82
2021/08/12 09:39:38;;;;;;;2.42;1.67;;;35.20;38.50;;;;;;5107426;28;20032;-79
2021/08/12 09:42:05;;;;;;;2.80;2.05;;;35.40;37.80;;;;;;5110620;28;20036;-79
2021/08/12 09:44:50;;;;;;;2.38;1.63;;;35.50;36.70;;;;;;5096037;28;20671;-79
2021/08/12 09:47:36;;;;;;;2.63;1.52;;;35.60;36.90;;;;;;5114107;28;20487;-80
2021/08/12 09:50:01;;;;;;;4.40;2.28;;;35.70;36.70;;;;;;5112954;28;20075;-79
2021/08/12 09:52:33;;;;;;;2.45;1.80;;;35.00;36.20;;;;;;5111098;28;20074;-79
2021/08/12 09:55:06;;;;;;;3.08;2.10;;;35.00;36.90;;;;;;5114399;28;20073;-79
2021/08/12 09:57:42;;;;;;;3.17;2.38;;;35.00;36.80;;;;;;5113297;28;20030;-80
2021/08/12 10:00:10;;;;;;;4.38;2.60;;;35.00;37.60;;;;;;5094882;28;20066;-80
2021/08/12 10:02:36;;;;;;;4.43;3.03;;;35.00;37.50;;;;;;5093028;28;20039;-77
2021/08/12 10:05:05;;;;;;;3.33;2.60;;;34.60;35.60;;;;;;5097466;28;20036;-78
2021/08/12 10:07:45;;;;;;;4.25;2.72;;;34.30;37.60;;;;;;5113022;28;20494;-80
2021/08/12 10:10:33;;;;;;;3.72;2.60;;;34.20;38.10;;;;;;5111628;28;20387;-79
2021/08/12 10:13:01;;;;;;;3.70;3.05;;;34.30;38.50;;;;;;5094546;28;20034;-79
2021/08/12 10:15:29;;;;;;;3.30;2.95;;;34.50;36.80;;;;;;5082684;28;20023;-78
2021/08/12 10:17:57;;;;;;;3.00;2.70;;;34.20;37.60;;;;;;5113765;28;20032;-77
2021/08/12 10:20:34;;;;;;;3.42;2.65;;;34.20;38.10;;;;;;5108584;28;20038;-78
2021/08/12 10:23:02;;;;;;;4.78;2.78;;;34.20;38.40;;;;;;5110208;28;20479;-78
2021/08/12 10:25:28;;;;;;;3.70;3.10;;;34.50;38.00;;;;;;5107726;28;20066;-80
2021/08/12 10:28:01;;;;;;;5.50;3.20;;;34.30;37.60;;;;;;5109736;28;20027;-79
2021/08/12 10:30:28;;;;;;;4.40;2.50;;;33.80;38.00;;;;;;5112408;28;20081;-79
2021/08/12 10:33:07;;;;;;;3.38;2.55;;;33.80;39.20;;;;;;5114289;28;20034;-79
2021/08/12 10:35:36;;;;;;;5.95;2.88;;;34.00;38.80;;;;;;5112024;28;20077;-79
2021/08/12 10:38:04;;;;;;;3.70;2.88;;;34.20;38.50;;;;;;5112293;28;20031;-79
2021/08/12 10:40:34;;;;;;;5.60;3.45;;;34.60;37.80;;;;;;5104448;28;20024;-80
2021/08/12 10:43:01;;;;;;;2.80;2.50;;;34.80;37.70;;;;;;5098194;28;20459;-79
2021/08/12 10:45:29;;;;;;;4.03;2.53;;;34.90;38.10;;;;;;5112108;28;20483;-78
2021/08/12 10:47:59;;;;;;;2.75;2.53;;;35.10;37.70;;;;;;5094663;28;20028;-80
2021/08/12 10:50:31;;;;;;;2.28;2.05;;;34.80;37.90;;;;;;5111055;28;20023;-78
2021/08/12 10:53:11;;;;;;;;;;;34.40;38.30;;;;;;5114377;28;20046;-79
2021/08/12 10:55:51;;;;;;;4.80;3.15;;;34.10;38.90;;;;;;5099207;28;19993;-79
2021/08/12 10:58:25;;;;;;;5.55;3.25;;;34.00;39.10;;;;;;5112920;28;20030;-83
2021/08/12 11:01:04;;;;;;;4.38;3.00;;;33.90;38.10;;;;;;5117936;28;20054;-79
2021/08/12 11:03:33;;;;;;;5.13;3.20;;;33.70;39.00;;;;;;5117138;28;20092;-80
2021/08/12 11:06:24;;;;;;;7.45;3.92;;;33.70;38.80;;;;;;5121051;27;20020;-78
2021/08/12 11:08:53;;;;;;;4.53;3.10;;;33.40;39.50;;;;;;5100089;28;20043;-79
2021/08/12 11:11:25;;;;;;;5.85;3.22;;;33.20;40.20;;;;;;5116612;28;20088;-82
2021/08/12 11:14:12;;;;;;;5.65;3.05;;;32.80;40.40;;;;;;5122653;28;20031;-79
2021/08/12 11:16:41;;;;;;;3.97;2.90;;;32.70;40.30;;;;;;5124187;28;20030;-78
2021/08/12 11:19:22;;;;;;;3.67;3.28;;;32.30;41.30;;;;;;5122673;28;20039;-78
2021/08/12 11:21:51;;;;;;;5.18;3.22;;;32.10;41.30;;;;;;5094229;28;20043;-78
2021/08/12 11:24:23;;;;;;;4.80;3.05;;;32.00;41.40;;;;;;5094438;28;20047;-79
2021/08/12 11:26:48;;;;;;;3.38;2.92;;;32.00;42.50;;;;;;5098274;28;20023;-79
2021/08/12 11:29:29;;;;;;;3.50;3.00;;;32.00;42.60;;;;;;5104286;28;20064;-78
2021/08/12 11:31:55;;;;;;;5.60;3.47;;;32.20;42.30;;;;;;5105865;28;20035;-78
2021/08/12 11:34:24;;;;;;;3.55;3.25;;;32.10;42.30;;;;;;5114201;28;20107;-78
2021/08/12 11:37:27;;;;;;;3.80;2.92;;;32.10;42.80;;;;;;5115923;28;20073;-77
2021/08/12 11:40:11;;;;;;;4.80;3.50;;;32.30;42.30;;;;;;5118292;27;20020;-79
2021/08/12 11:42:40;;;;;;;4.50;3.28;;;31.80;41.50;;;;;;5107457;28;20039;-77
2021/08/12 11:45:18;;;;;;;3.65;3.20;;;31.30;42.40;;;;;;5113435;28;20085;-78
2021/08/12 11:47:52;;;;;;;4.03;3.00;;;31.00;43.20;;;;;;5093592;28;20032;-79
2021/08/12 11:50:18;;;;;;;4.32;3.75;;;30.90;43.50;;;;;;5090061;28;20040;-79
2021/08/12 11:52:49;;;;;;;5.95;3.45;;;30.60;43.50;;;;;;5114952;27;20431;-79
2021/08/12 11:55:19;;;;;;;3.55;2.67;;;30.50;44.70;;;;;;5106340;28;20374;-78
2021/08/12 11:57:56;;;;;;;4.57;3.22;;;30.80;44.80;;;;;;5093019;28;20335;-79
2021/08/12 12:00:22;;;;;;;4.03;3.20;;;30.90;43.40;;;;;;5087612;28;20051;-80
2021/08/12 12:03:05;;;;;;;4.53;3.78;;;30.70;43.30;;;;;;5111201;28;20042;-78
2021/08/12 12:05:33;;;;;;;4.35;3.30;;;30.80;43.60;;;;;;5112859;28;20036;-77
2021/08/12 12:08:14;;;;;;;4.00;3.33;;;30.80;45.10;;;;;;5111250;28;20019;-78
2021/08/12 12:10:42;;;;;;;3.85;3.33;;;30.70;44.80;;;;;;5110953;28;20036;-78
2021/08/12 12:13:12;;;;;;;3.30;3.00;;;30.70;45.20;;;;;;5113014;28;20507;-78
2021/08/12 12:15:47;;;;;;;3.58;3.25;;;30.70;44.80;;;;;;5110026;28;20096;-79
2021/08/12 12:18:15;;;;;;;4.95;3.15;;;30.50;43.80;;;;;;5112118;28;20055;-80
2021/08/12 12:20:45;;;;;;;4.03;3.10;;;30.20;44.60;;;;;;5103897;28;20029;-79
2021/08/12 12:23:13;;;;;;;4.82;3.42;;;30.00;45.80;;;;;;5092112;28;20024;-80
2021/08/12 12:25:42;;;;;;;4.45;3.10;;;29.90;45.30;;;;;;5099218;28;20044;-78
2021/08/12 12:28:11;;;;;;;4.55;3.30;;;29.80;45.60;;;;;;5111446;28;20028;-80
2021/08/12 12:30:37;;;;;;;3.75;2.97;;;29.80;46.30;;;;;;5106912;28;20031;-78
2021/08/12 12:33:08;;;;;;;3.22;2.90;;;29.80;46.90;;;;;;5078220;28;20036;-78
2021/08/12 12:35:46;;;;;;;3.58;2.75;;;30.00;46.40;;;;;;5113909;28;20038;-80
2021/08/12 12:38:16;;;;;;;3.00;2.53;;;30.20;47.00;;;;;;5115131;28;20024;-78
2021/08/12 12:40:42;;;;;;;3.00;2.70;;;30.60;46.20;;;;;;5109746;28;20390;-78